createdAt,value
2019-02-10T00:02:13.828Z,69.26
2019-02-10T00:04:44.752Z,69.44
2019-02-10T00:07:17.682Z,70.47
2019-02-10T00:09:48.599Z,70.53
2019-02-10T00:12:20.409Z,70.84
2019-02-10T00:14:51.355Z,72.16
2019-02-10T00:17:22.259Z,73.27
2019-02-10T00:19:53.187Z,73.67
2019-02-10T00:22:24.064Z,74.91
2019-02-10T00:24:54.974Z,75.51
2019-02-10T00:27:25.868Z,76.39
2019-02-10T00:29:56.801Z,76.57
2019-02-10T00:32:27.795Z,76.80
2019-02-10T00:34:58.712Z,77.00
2019-02-10T00:37:29.607Z,77.05
2019-02-10T00:40:00.519Z,77.15
2019-02-10T00:42:31.402Z,77.55
2019-02-10T00:45:02.342Z,77.90
2019-02-10T00:47:33.233Z,77.94
2019-02-10T00:50:04.361Z,77.85
2019-02-10T00:52:35.241Z,77.87
2019-02-10T00:55:06.507Z,77.88
2019-02-10T00:57:37.393Z,77.93
2019-02-10T01:00:09.847Z,78.38
2019-02-10T01:02:40.739Z,78.08
2019-02-10T01:05:11.724Z,77.86
2019-02-10T01:07:42.603Z,77.64
2019-02-10T01:10:14.010Z,77.77
2019-02-10T01:12:45.819Z,77.71
2019-02-10T01:15:16.972Z,78.19
2019-02-10T01:17:47.930Z,78.45
2019-02-10T01:20:18.845Z,78.88
2019-02-10T01:22:49.811Z,78.84
2019-02-10T01:25:20.732Z,78.63
2019-02-10T01:27:51.623Z,78.41
2019-02-10T01:30:22.576Z,78.53
2019-02-10T01:32:53.480Z,78.77
2019-02-10T01:35:24.389Z,78.96
2019-02-10T01:37:55.282Z,78.80
2019-02-10T01:40:26.193Z,78.76
2019-02-10T01:42:57.077Z,78.80
2019-02-10T01:45:28.025Z,78.54
2019-02-10T01:47:58.911Z,78.35
2019-02-10T01:50:29.834Z,78.20
2019-02-10T01:53:00.722Z,77.97
2019-02-10T01:55:32.940Z,77.74
2019-02-10T01:58:03.921Z,77.48
2019-02-10T02:00:35.033Z,77.68
2019-02-10T02:03:05.927Z,77.60
2019-02-10T02:05:36.835Z,77.22
2019-02-10T02:08:07.724Z,77.32
2019-02-10T02:10:38.637Z,77.24
2019-02-10T02:13:10.367Z,77.10
2019-02-10T02:15:41.309Z,76.81
2019-02-10T02:18:12.299Z,76.76
2019-02-10T02:20:43.218Z,76.43
2019-02-10T02:23:14.115Z,76.51
2019-02-10T02:25:45.036Z,76.07
2019-02-10T02:28:15.928Z,76.21
2019-02-10T02:30:46.912Z,75.84
2019-02-10T02:33:17.796Z,75.64
2019-02-10T02:35:48.730Z,75.42
2019-02-10T02:38:19.617Z,75.21
2019-02-10T02:40:50.540Z,75.11
2019-02-10T02:43:21.431Z,74.90
2019-02-10T02:45:52.468Z,74.82
2019-02-10T02:48:23.355Z,75.07
2019-02-10T02:50:54.269Z,75.22
2019-02-10T02:53:25.169Z,75.10
2019-02-10T02:55:56.021Z,75.27
2019-02-10T02:58:26.905Z,75.34
2019-02-10T03:00:57.907Z,74.87
2019-02-10T03:03:28.799Z,74.62
2019-02-10T03:06:01.691Z,74.79
2019-02-10T03:08:32.634Z,74.89
2019-02-10T03:11:03.551Z,74.76
2019-02-10T03:13:35.214Z,75.02
2019-02-10T03:16:06.153Z,75.12
2019-02-10T03:18:37.044Z,74.92
2019-02-10T03:21:07.945Z,74.73
2019-02-10T03:23:38.839Z,74.86
2019-02-10T03:26:09.756Z,74.73
2019-02-10T03:28:40.645Z,74.84
2019-02-10T03:31:11.581Z,74.72
2019-02-10T03:33:42.478Z,74.48
2019-02-10T03:36:13.387Z,74.46
2019-02-10T03:38:44.366Z,74.49
2019-02-10T03:41:15.474Z,74.49
2019-02-10T03:43:46.364Z,74.67
2019-02-10T03:46:17.300Z,74.48
2019-02-10T03:48:48.189Z,74.61
2019-02-10T03:51:19.115Z,74.74
2019-02-10T03:53:50.008Z,74.65
2019-02-10T03:56:20.934Z,74.67
2019-02-10T03:58:51.829Z,74.78
2019-02-10T04:01:22.904Z,74.65
2019-02-10T04:03:53.802Z,74.46
2019-02-10T04:06:24.724Z,74.37
2019-02-10T04:08:55.625Z,74.48
2019-02-10T04:11:26.545Z,74.54
2019-02-10T04:13:57.431Z,74.47
2019-02-10T04:16:28.370Z,74.43
2019-02-10T04:18:59.256Z,74.38
2019-02-10T04:21:30.194Z,74.35
2019-02-10T04:24:01.089Z,74.40
2019-02-10T04:26:32.003Z,74.37
2019-02-10T04:29:02.889Z,74.25
2019-02-10T04:31:33.846Z,74.49
2019-02-10T04:34:04.739Z,74.62
2019-02-10T04:36:35.660Z,74.61
2019-02-10T04:39:06.647Z,74.37
2019-02-10T04:41:37.562Z,74.35
2019-02-10T04:44:08.458Z,74.73
2019-02-10T04:46:39.416Z,74.42
2019-02-10T04:49:10.299Z,74.48
2019-02-10T04:51:41.233Z,74.59
2019-02-10T04:54:12.117Z,74.57
2019-02-10T04:56:43.043Z,74.47
2019-02-10T04:59:13.931Z,74.64
2019-02-10T05:01:45.235Z,74.58
2019-02-10T05:04:16.135Z,74.48
2019-02-10T05:06:47.062Z,74.63
2019-02-10T05:09:17.955Z,74.84
2019-02-10T05:11:48.883Z,74.80
2019-02-10T05:14:19.764Z,74.73
2019-02-10T05:16:50.792Z,74.94
2019-02-10T05:19:21.670Z,74.77
2019-02-10T05:21:52.597Z,74.85
2019-02-10T05:24:23.487Z,74.70
2019-02-10T05:26:54.406Z,74.79
2019-02-10T05:29:25.310Z,74.64
2019-02-10T05:31:56.292Z,74.70
2019-02-10T05:34:27.202Z,74.47
2019-02-10T05:36:58.145Z,74.54
2019-02-10T05:39:29.042Z,74.73
2019-02-10T05:41:59.973Z,74.64
2019-02-10T05:44:30.857Z,74.53
2019-02-10T05:47:01.802Z,74.47
2019-02-10T05:49:32.859Z,74.46
2019-02-10T05:52:03.781Z,74.28
2019-02-10T05:54:34.662Z,74.32
2019-02-10T05:57:05.584Z,74.46
2019-02-10T05:59:36.478Z,74.25
2019-02-10T06:02:15.915Z,74.19
2019-02-10T06:04:46.802Z,74.10
2019-02-10T06:07:17.826Z,74.04
2019-02-10T06:09:48.712Z,73.76
2019-02-10T06:12:19.710Z,73.78
2019-02-10T06:14:51.379Z,73.58
2019-02-10T06:17:22.482Z,73.59
2019-02-10T06:19:53.384Z,73.61
2019-02-10T06:22:24.296Z,73.72
2019-02-10T06:24:55.176Z,73.70
2019-02-10T06:27:32.083Z,73.69
2019-02-10T06:30:03.077Z,73.74
2019-02-10T06:32:34.026Z,73.84
2019-02-10T06:35:06.795Z,73.89
2019-02-10T06:37:37.715Z,73.57
2019-02-10T06:40:09.513Z,73.41
2019-02-10T06:42:40.431Z,73.36
2019-02-10T06:45:11.723Z,73.22
2019-02-10T06:47:42.665Z,73.23
2019-02-10T06:50:13.568Z,73.10
2019-02-10T06:52:44.491Z,73.34
2019-02-10T06:55:15.391Z,73.00
2019-02-10T06:57:46.396Z,72.91
2019-02-10T07:00:24.724Z,72.67
2019-02-10T07:03:32.064Z,72.38
2019-02-10T07:06:02.970Z,72.11
2019-02-10T07:08:33.960Z,71.62
2019-02-10T07:11:04.849Z,71.27
2019-02-10T07:13:38.512Z,70.90
2019-02-10T07:16:29.111Z,70.52
2019-02-10T07:19:32.032Z,70.06
2019-02-10T07:22:34.468Z,69.81
2019-02-10T07:25:17.337Z,69.34
2019-02-10T07:28:03.424Z,69.02
2019-02-10T07:30:52.202Z,68.73
2019-02-10T07:33:34.591Z,68.36
2019-02-10T07:36:10.413Z,67.96
2019-02-10T07:38:50.124Z,67.62
2019-02-10T07:41:43.761Z,67.34
2019-02-10T07:44:29.390Z,67.14
2019-02-10T07:47:24.265Z,67.09
2019-02-10T07:50:03.904Z,66.88
2019-02-10T07:52:40.640Z,66.69
2019-02-10T07:55:39.838Z,66.52
2019-02-10T07:58:30.087Z,66.30
2019-02-10T08:01:21.855Z,66.23
2019-02-10T08:04:07.711Z,66.05
2019-02-10T08:06:53.339Z,65.93
2019-02-10T08:09:41.994Z,66.10
2019-02-10T08:12:32.054Z,66.18
2019-02-10T08:15:17.191Z,66.07
2019-02-10T08:17:56.690Z,65.97
2019-02-10T08:20:42.618Z,65.91
2019-02-10T08:23:31.471Z,65.61
2019-02-10T08:26:14.579Z,65.39
2019-02-10T08:29:00.555Z,65.04
2019-02-10T08:31:51.002Z,64.95
2019-02-10T08:34:24.811Z,64.63
2019-02-10T08:37:15.159Z,64.43
2019-02-10T08:39:51.835Z,64.46
2019-02-10T08:42:25.695Z,64.29
2019-02-10T08:45:17.296Z,64.07
2019-02-10T08:47:51.139Z,64.11
2019-02-10T08:50:44.502Z,64.01
2019-02-10T08:53:18.334Z,64.01
2019-02-10T08:55:49.255Z,63.90
2019-02-10T08:58:20.203Z,64.26
2019-02-10T09:00:51.099Z,64.20
2019-02-10T09:03:22.037Z,64.24
2019-02-10T09:05:52.989Z,64.33
2019-02-10T09:08:23.907Z,64.38
2019-02-10T09:10:54.884Z,64.38
2019-02-10T09:13:25.828Z,64.41
2019-02-10T09:15:56.794Z,64.18
2019-02-10T09:18:27.711Z,64.04
2019-02-10T09:20:58.608Z,64.07
2019-02-10T09:23:29.539Z,63.91
2019-02-10T09:26:00.432Z,63.69
2019-02-10T09:28:31.402Z,63.47
2019-02-10T09:31:02.362Z,63.40
2019-02-10T09:33:33.290Z,63.25
2019-02-10T09:36:04.181Z,63.27
2019-02-10T09:38:35.109Z,63.19
2019-02-10T09:41:06.026Z,63.17
2019-02-10T09:43:37.079Z,63.28
2019-02-10T09:46:07.983Z,63.16
2019-02-10T09:48:38.910Z,63.11
2019-02-10T09:51:09.801Z,63.21
2019-02-10T09:53:40.723Z,63.04
2019-02-10T09:56:11.631Z,63.07
2019-02-10T09:58:42.588Z,63.04
2019-02-10T10:01:14.713Z,63.21
2019-02-10T10:03:45.993Z,63.34
2019-02-10T10:06:16.910Z,63.25
2019-02-10T10:08:47.844Z,63.22
2019-02-10T10:11:18.789Z,63.47
2019-02-10T10:13:49.791Z,63.39
2019-02-10T10:16:20.759Z,63.36
2019-02-10T10:18:51.686Z,63.58
2019-02-10T10:21:22.575Z,63.69
2019-02-10T10:23:53.570Z,63.69
2019-02-10T10:26:24.467Z,63.54
2019-02-10T10:28:55.427Z,63.46
2019-02-10T10:31:26.315Z,63.63
2019-02-10T10:33:57.247Z,63.47
2019-02-10T10:36:28.146Z,63.55
2019-02-10T10:38:59.084Z,63.55
2019-02-10T10:41:29.990Z,63.22
2019-02-10T10:44:00.916Z,62.99
2019-02-10T10:46:31.814Z,62.86
2019-02-10T10:49:02.752Z,62.92
2019-02-10T10:51:33.640Z,62.67
2019-02-10T10:54:04.936Z,62.52
2019-02-10T10:56:35.866Z,62.33
2019-02-10T10:59:06.802Z,62.20
2019-02-10T11:01:37.700Z,62.00
2019-02-10T11:04:08.741Z,61.81
2019-02-10T11:06:39.705Z,60.98
2019-02-10T11:09:10.663Z,60.83
2019-02-10T11:11:41.569Z,60.73
2019-02-10T11:14:12.549Z,60.72
2019-02-10T11:16:43.461Z,60.48
2019-02-10T11:19:16.892Z,59.90
2019-02-10T11:21:47.798Z,59.95
2019-02-10T11:24:18.731Z,59.85
2019-02-10T11:26:49.637Z,59.28
2019-02-10T11:29:20.593Z,58.93
2019-02-10T11:31:51.508Z,59.07
2019-02-10T11:34:22.448Z,57.34
2019-02-10T11:36:53.354Z,55.35
2019-02-10T11:39:24.280Z,56.39
2019-02-10T11:41:55.272Z,56.95
2019-02-10T11:44:26.237Z,57.26
2019-02-10T11:46:57.143Z,57.48
2019-02-10T11:49:28.083Z,57.51
2019-02-10T11:51:58.991Z,57.25
2019-02-10T11:54:29.923Z,57.55
2019-02-10T11:57:00.830Z,57.21
2019-02-10T11:59:32.078Z,57.47
2019-02-10T12:02:02.982Z,57.50
2019-02-10T12:04:33.928Z,57.49
2019-02-10T12:07:11.969Z,57.51
2019-02-10T12:09:42.913Z,57.61
2019-02-10T12:12:13.821Z,57.71
2019-02-10T12:14:44.797Z,57.35
2019-02-10T12:17:15.704Z,57.59
2019-02-10T12:19:47.440Z,57.62
2019-02-10T12:22:18.344Z,57.38
2019-02-10T12:24:49.278Z,57.34
2019-02-10T12:27:20.193Z,57.57
2019-02-10T12:29:51.297Z,57.30
2019-02-10T12:32:22.205Z,57.30
2019-02-10T12:34:53.143Z,57.50
2019-02-10T12:37:32.057Z,57.54
2019-02-10T12:39:59.850Z,57.75
2019-02-10T12:42:29.281Z,57.90
2019-02-10T12:45:00.396Z,58.00
2019-02-10T12:47:31.274Z,58.30
2019-02-10T12:50:02.204Z,58.36
2019-02-10T12:52:42.304Z,58.30
2019-02-10T12:55:39.533Z,58.35
2019-02-10T12:58:37.641Z,58.29
2019-02-10T13:01:27.682Z,58.41
2019-02-10T13:04:28.643Z,58.52
2019-02-10T13:07:29.776Z,58.46
2019-02-10T13:10:27.175Z,58.65
2019-02-10T13:13:19.355Z,58.80
2019-02-10T13:15:57.318Z,58.87
2019-02-10T13:18:41.305Z,58.96
2019-02-10T13:21:37.197Z,58.87
2019-02-10T13:24:25.034Z,59.04
2019-02-10T13:27:13.980Z,59.17
2019-02-10T13:29:47.050Z,59.56
2019-02-10T13:32:17.937Z,59.60
2019-02-10T13:34:49.036Z,59.72
2019-02-10T13:37:20.005Z,59.80
2019-02-10T13:39:50.938Z,59.82
2019-02-10T13:42:21.900Z,59.93
2019-02-10T13:44:52.829Z,59.87
2019-02-10T13:47:23.760Z,59.79
2019-02-10T13:49:54.700Z,59.91
2019-02-10T13:52:25.596Z,59.80
2019-02-10T13:54:56.524Z,59.74
2019-02-10T13:57:27.417Z,59.81
2019-02-10T13:59:58.333Z,59.98
2019-02-10T14:02:29.226Z,59.76
2019-02-10T14:05:00.245Z,59.86
2019-02-10T14:07:31.158Z,60.23
2019-02-10T14:10:02.071Z,60.61
2019-02-10T14:12:32.955Z,60.94
2019-02-10T14:15:04.582Z,61.21
2019-02-10T14:17:35.495Z,61.55
2019-02-10T14:20:09.872Z,61.80
2019-02-10T14:22:41.606Z,62.04
2019-02-10T14:25:12.536Z,63.34
2019-02-10T14:27:43.434Z,63.14
2019-02-10T14:30:22.514Z,62.93
2019-02-10T14:32:53.536Z,63.26
2019-02-10T14:35:24.627Z,63.73
2019-02-10T14:37:58.453Z,63.52
2019-02-10T14:40:34.090Z,64.11
2019-02-10T14:43:09.785Z,64.00
2019-02-10T14:45:45.756Z,63.96
2019-02-10T14:48:30.721Z,64.49
2019-02-10T14:51:10.917Z,65.16
2019-02-10T14:53:55.711Z,65.85
2019-02-10T14:56:27.593Z,65.83
2019-02-10T14:59:10.781Z,65.58
2019-02-10T15:01:43.751Z,65.78
2019-02-10T15:04:17.540Z,65.52
2019-02-10T15:06:51.490Z,65.74
2019-02-10T15:09:24.697Z,66.09
2019-02-10T15:11:59.900Z,66.70
2019-02-10T15:14:32.968Z,67.52
2019-02-10T15:17:06.174Z,68.24
2019-02-10T15:19:49.054Z,68.74
2019-02-10T15:22:24.981Z,69.11
2019-02-10T15:25:00.324Z,69.57
2019-02-10T15:27:36.111Z,69.49
2019-02-10T15:30:19.872Z,69.42
2019-02-10T15:32:52.503Z,69.21
2019-02-10T15:35:27.740Z,69.59
2019-02-10T15:38:04.954Z,70.18
2019-02-10T15:40:49.818Z,70.88
2019-02-10T15:43:18.926Z,71.31
2019-02-10T15:45:55.336Z,71.46
2019-02-10T15:48:34.979Z,72.46
2019-02-10T15:51:08.228Z,72.62
2019-02-10T15:53:51.233Z,73.17
2019-02-10T15:56:43.629Z,72.81
2019-02-10T15:59:47.756Z,73.21
2019-02-10T16:06:02.149Z,73.86
2019-02-10T16:12:36.406Z,74.77
2019-02-10T16:18:03.700Z,75.32
2019-02-10T16:20:35.273Z,75.47
2019-02-10T16:26:44.779Z,75.57
2019-02-10T16:29:21.184Z,76.10
2019-02-10T23:24:57.715Z,76.50
2019-02-10T23:30:35.535Z,76.66
2019-02-10T23:45:57.383Z,76.73
2019-02-10T23:59:17.292Z,76.54
